createdAt,value
2017-08-30T00:01:25.403Z,10.50
2017-08-30T00:03:52.849Z,12.70
2017-08-30T00:06:20.289Z,11.83
2017-08-30T00:08:47.755Z,11.53
2017-08-30T00:11:15.192Z,14.93
2017-08-30T00:13:42.649Z,12.77
2017-08-30T00:16:10.092Z,12.93
2017-08-30T00:18:37.524Z,11.87
2017-08-30T00:21:04.977Z,12.73
2017-08-30T00:23:32.489Z,12.07
2017-08-30T00:26:11.811Z,13.77
2017-08-30T00:28:39.264Z,13.10
2017-08-30T00:31:06.781Z,12.43
2017-08-30T00:33:34.215Z,12.93
2017-08-30T00:36:01.784Z,13.20
2017-08-30T00:38:29.217Z,12.60
2017-08-30T00:40:56.735Z,13.97
2017-08-30T00:43:24.214Z,13.37
2017-08-30T00:45:51.767Z,15.83
2017-08-30T00:48:19.201Z,14.30
2017-08-30T00:50:46.645Z,16.70
2017-08-30T00:53:14.196Z,15.00
2017-08-30T00:55:41.737Z,15.43
2017-08-30T00:58:09.184Z,15.20
2017-08-30T01:00:36.718Z,14.93
2017-08-30T01:03:04.170Z,16.07
2017-08-30T01:05:31.700Z,14.70
2017-08-30T01:07:59.245Z,15.13
2017-08-30T01:10:26.789Z,15.60
2017-08-30T01:12:54.345Z,14.47
2017-08-30T01:15:21.788Z,16.03
2017-08-30T01:17:49.224Z,15.63
2017-08-30T01:20:16.764Z,16.70
2017-08-30T01:22:44.313Z,15.70
2017-08-30T01:25:11.766Z,15.80
2017-08-30T01:27:39.311Z,15.57
2017-08-30T01:30:06.748Z,16.23
2017-08-30T01:32:34.285Z,16.43
2017-08-30T01:35:01.830Z,16.23
2017-08-30T01:37:29.372Z,15.83
2017-08-30T01:39:56.921Z,14.23
2017-08-30T01:42:24.466Z,16.60
2017-08-30T01:44:52.004Z,17.50
2017-08-30T01:47:20.077Z,16.67
2017-08-30T01:49:47.523Z,17.90
2017-08-30T01:52:15.072Z,16.00
2017-08-30T01:54:42.610Z,15.93
2017-08-30T01:57:10.146Z,16.27
2017-08-30T01:59:37.583Z,17.97
2017-08-30T02:02:05.018Z,17.03
2017-08-30T02:04:32.474Z,16.73
2017-08-30T02:07:00.016Z,17.97
2017-08-30T02:09:27.568Z,17.13
2017-08-30T02:11:55.012Z,16.20
2017-08-30T02:14:22.550Z,16.20
2017-08-30T02:16:50.089Z,15.73
2017-08-30T02:19:17.541Z,19.70
2017-08-30T02:21:45.088Z,16.80
2017-08-30T02:24:12.543Z,15.50
2017-08-30T02:26:39.993Z,18.20
2017-08-30T02:29:07.440Z,15.97
2017-08-30T02:31:34.884Z,17.63
2017-08-30T02:34:02.417Z,16.20
2017-08-30T02:36:29.865Z,16.27
2017-08-30T02:38:57.309Z,17.87
2017-08-30T02:41:24.796Z,18.20
2017-08-30T02:43:52.209Z,18.47
2017-08-30T02:46:19.662Z,21.73
2017-08-30T02:48:47.113Z,16.73
2017-08-30T02:51:14.563Z,17.97
2017-08-30T02:53:42.022Z,17.57
2017-08-30T02:56:09.476Z,18.07
2017-08-30T02:58:36.932Z,16.27
2017-08-30T03:01:04.619Z,17.87
2017-08-30T03:03:32.117Z,18.73
2017-08-30T03:05:59.665Z,19.17
2017-08-30T03:08:27.213Z,19.00
2017-08-30T03:10:54.749Z,17.87
2017-08-30T03:13:22.297Z,19.23
2017-08-30T03:15:49.744Z,17.70
2017-08-30T03:18:17.288Z,17.23
2017-08-30T03:20:45.767Z,18.40
2017-08-30T03:23:13.328Z,18.73
2017-08-30T03:25:40.769Z,17.83
2017-08-30T03:28:08.289Z,20.97
2017-08-30T03:30:35.821Z,19.40
2017-08-30T03:33:03.443Z,19.00
2017-08-30T03:35:30.877Z,19.33
2017-08-30T03:37:58.330Z,19.67
2017-08-30T03:40:25.812Z,20.80
2017-08-30T03:42:53.273Z,19.23
2017-08-30T03:45:20.727Z,20.30
2017-08-30T03:47:48.183Z,20.90
2017-08-30T03:50:15.676Z,17.93
2017-08-30T03:52:43.221Z,21.43
2017-08-30T03:55:10.768Z,20.83
2017-08-30T03:57:38.237Z,19.23
2017-08-30T04:00:05.760Z,20.47
2017-08-30T04:02:33.204Z,20.23
2017-08-30T04:05:00.653Z,20.10
2017-08-30T04:07:28.180Z,18.80
2017-08-30T04:09:55.624Z,19.30
2017-08-30T04:12:23.172Z,22.03
2017-08-30T04:14:50.638Z,21.73
2017-08-30T04:17:18.129Z,23.00
2017-08-30T04:19:45.601Z,20.93
2017-08-30T04:22:13.044Z,20.87
2017-08-30T04:24:40.589Z,20.77
2017-08-30T04:27:08.029Z,23.90
2017-08-30T04:29:35.473Z,22.17
2017-08-30T04:32:02.929Z,21.53
2017-08-30T04:34:30.373Z,21.50
2017-08-30T04:36:57.834Z,20.47
2017-08-30T04:39:25.268Z,20.70
2017-08-30T04:41:52.717Z,21.30
2017-08-30T04:44:20.304Z,20.80
2017-08-30T04:46:47.760Z,20.30
2017-08-30T04:49:15.217Z,21.37
2017-08-30T04:51:42.660Z,21.13
2017-08-30T04:54:10.126Z,22.67
2017-08-30T04:56:37.654Z,20.53
2017-08-30T04:59:05.105Z,20.70
2017-08-30T05:01:32.553Z,20.47
2017-08-30T05:03:59.997Z,20.60
2017-08-30T05:06:27.453Z,18.90
2017-08-30T05:08:54.908Z,20.67
2017-08-30T05:11:22.348Z,21.17
2017-08-30T05:13:49.817Z,20.43
2017-08-30T05:16:17.257Z,21.70
2017-08-30T05:18:44.700Z,20.63
2017-08-30T05:21:12.159Z,21.23
2017-08-30T05:23:39.608Z,32.10
2017-08-30T05:26:07.069Z,23.10
2017-08-30T05:28:34.528Z,20.97
2017-08-30T05:31:01.990Z,21.23
2017-08-30T05:33:29.440Z,20.53
2017-08-30T05:35:56.896Z,20.43
2017-08-30T05:38:24.353Z,20.87
2017-08-30T05:40:51.809Z,19.63
2017-08-30T05:43:19.327Z,18.47
2017-08-30T05:45:46.789Z,19.57
2017-08-30T05:48:14.233Z,19.03
2017-08-30T05:50:41.689Z,21.00
2017-08-30T05:53:20.258Z,19.43
2017-08-30T05:55:57.613Z,18.70
2017-08-30T05:58:25.067Z,21.30
2017-08-30T06:00:52.504Z,20.20
2017-08-30T06:03:19.980Z,19.47
2017-08-30T06:05:47.433Z,18.73
2017-08-30T06:08:14.883Z,18.37
2017-08-30T06:10:42.318Z,19.27
2017-08-30T06:13:09.876Z,19.10
2017-08-30T06:15:37.321Z,18.03
2017-08-30T06:18:04.781Z,20.13
2017-08-30T06:20:32.224Z,18.80
2017-08-30T06:22:59.751Z,19.53
2017-08-30T06:25:27.209Z,16.83
2017-08-30T06:27:54.650Z,16.53
2017-08-30T06:30:22.139Z,17.23
2017-08-30T06:32:49.612Z,17.07
2017-08-30T06:35:17.062Z,16.67
2017-08-30T06:37:44.601Z,16.73
2017-08-30T06:40:12.074Z,16.63
2017-08-30T06:42:39.523Z,16.80
2017-08-30T06:45:06.989Z,15.37
2017-08-30T06:47:34.565Z,15.73
2017-08-30T06:50:02.001Z,16.27
2017-08-30T06:52:29.458Z,15.63
2017-08-30T06:54:57.020Z,15.07
2017-08-30T06:57:24.477Z,14.27
2017-08-30T06:59:52.468Z,15.63
2017-08-30T07:02:19.937Z,14.10
2017-08-30T07:04:47.397Z,14.27
2017-08-30T07:07:14.928Z,15.03
2017-08-30T07:09:42.374Z,13.77
2017-08-30T07:12:09.840Z,15.03
2017-08-30T07:14:37.285Z,15.73
2017-08-30T07:17:04.716Z,13.70
2017-08-30T07:19:32.241Z,14.07
2017-08-30T07:21:59.827Z,13.53
2017-08-30T07:24:27.289Z,13.00
2017-08-30T07:26:54.812Z,13.63
2017-08-30T07:29:22.263Z,12.47
2017-08-30T07:31:49.701Z,15.10
2017-08-30T07:34:17.156Z,12.90
2017-08-30T07:36:44.613Z,12.70
2017-08-30T07:39:12.068Z,13.17
2017-08-30T07:41:39.529Z,13.53
2017-08-30T07:44:06.976Z,12.00
2017-08-30T07:46:34.429Z,13.57
2017-08-30T07:49:01.887Z,13.43
2017-08-30T07:51:29.352Z,13.37
2017-08-30T07:53:56.814Z,13.13
2017-08-30T07:56:24.260Z,14.07
2017-08-30T07:58:51.715Z,12.80
2017-08-30T08:01:19.249Z,13.20
2017-08-30T08:03:46.684Z,14.60
2017-08-30T08:06:14.128Z,12.00
2017-08-30T08:08:41.680Z,10.53
2017-08-30T08:11:09.124Z,12.50
2017-08-30T08:13:36.599Z,12.53
2017-08-30T08:16:04.041Z,13.20
2017-08-30T08:18:31.480Z,11.77
2017-08-30T08:20:58.936Z,12.93
2017-08-30T08:23:26.385Z,10.63
2017-08-30T08:25:53.846Z,12.07
2017-08-30T08:28:21.303Z,11.10
2017-08-30T08:30:48.752Z,11.63
2017-08-30T08:33:16.209Z,13.43
2017-08-30T08:35:43.636Z,18.60
2017-08-30T08:38:11.089Z,19.90
2017-08-30T08:40:38.539Z,12.07
2017-08-30T08:43:05.996Z,11.93
2017-08-30T08:45:33.451Z,11.70
2017-08-30T08:48:00.898Z,12.17
2017-08-30T08:50:28.333Z,11.57
2017-08-30T08:55:29.609Z,9.83
2017-08-30T08:57:57.083Z,11.80
2017-08-30T09:00:24.525Z,12.00
2017-08-30T09:02:51.969Z,12.10
2017-08-30T09:05:19.413Z,12.17
2017-08-30T09:07:46.858Z,12.90
2017-08-30T09:10:14.315Z,11.73
2017-08-30T09:12:41.778Z,12.00
2017-08-30T09:15:09.229Z,13.13
2017-08-30T09:17:36.677Z,11.80
2017-08-30T09:20:04.138Z,19.40
2017-08-30T09:22:31.595Z,10.87
2017-08-30T09:24:59.085Z,12.67
2017-08-30T09:27:26.521Z,10.53
2017-08-30T09:29:54.068Z,12.67
2017-08-30T09:32:21.523Z,11.73
2017-08-30T09:34:48.953Z,10.17
2017-08-30T09:37:16.401Z,10.90
2017-08-30T09:39:43.842Z,12.47
2017-08-30T09:42:11.280Z,10.50
2017-08-30T09:44:38.733Z,11.50
2017-08-30T09:47:06.177Z,11.33
2017-08-30T09:49:33.618Z,11.07
2017-08-30T09:52:01.075Z,11.30
2017-08-30T09:54:28.515Z,11.03
2017-08-30T09:56:55.968Z,13.13
2017-08-30T09:59:23.407Z,15.00
2017-08-30T10:01:50.860Z,12.07
2017-08-30T10:04:18.312Z,12.03
2017-08-30T10:06:45.770Z,10.47
2017-08-30T10:09:13.210Z,12.30
2017-08-30T10:11:40.655Z,15.93
2017-08-30T10:14:08.133Z,10.70
2017-08-30T10:16:35.560Z,12.73
2017-08-30T10:19:03.008Z,13.87
2017-08-30T10:21:30.795Z,11.77
2017-08-30T10:23:59.040Z,10.30
2017-08-30T10:26:26.603Z,11.17
2017-08-30T10:28:54.054Z,11.27
2017-08-30T10:31:21.488Z,17.80
2017-08-30T10:33:48.978Z,12.20
2017-08-30T10:36:16.425Z,12.03
2017-08-30T10:38:43.880Z,9.70
2017-08-30T10:41:11.321Z,11.30
2017-08-30T10:43:38.778Z,10.53
2017-08-30T10:46:06.229Z,11.40
2017-08-30T10:48:33.659Z,12.00
2017-08-30T10:51:01.101Z,11.97
2017-08-30T10:53:28.553Z,14.10
2017-08-30T10:55:56.018Z,10.23
2017-08-30T10:58:23.485Z,12.37
2017-08-30T11:00:50.925Z,10.27
2017-08-30T11:03:18.365Z,11.60
2017-08-30T11:05:45.825Z,10.83
2017-08-30T11:08:13.264Z,10.30
2017-08-30T11:10:41.340Z,11.63
2017-08-30T11:13:08.788Z,11.40
2017-08-30T11:15:36.255Z,10.50
2017-08-30T11:18:03.694Z,12.03
2017-08-30T11:20:31.160Z,10.30
2017-08-30T11:22:58.600Z,11.00
2017-08-30T11:25:26.048Z,11.20
2017-08-30T11:27:53.579Z,10.47
2017-08-30T11:30:21.017Z,11.50
2017-08-30T11:32:48.460Z,9.27
2017-08-30T11:35:15.905Z,12.37
2017-08-30T11:37:43.357Z,10.73
2017-08-30T11:40:10.780Z,12.00
2017-08-30T11:42:38.225Z,10.53
2017-08-30T11:45:05.685Z,10.53
2017-08-30T11:47:33.116Z,10.07
2017-08-30T11:50:00.648Z,12.07
2017-08-30T11:52:28.226Z,10.47
2017-08-30T11:54:55.739Z,9.07
2017-08-30T11:57:23.180Z,10.23
2017-08-30T11:59:50.721Z,9.80
2017-08-30T12:02:18.165Z,13.80
2017-08-30T12:04:45.617Z,9.53
2017-08-30T12:07:13.052Z,9.00
2017-08-30T12:09:40.513Z,16.70
2017-08-30T12:12:07.956Z,9.47
2017-08-30T12:14:35.435Z,9.27
2017-08-30T12:17:02.901Z,13.23
2017-08-30T12:19:30.364Z,12.17
2017-08-30T12:21:57.808Z,9.77
2017-08-30T12:24:25.272Z,12.40
2017-08-30T12:26:52.705Z,12.60
2017-08-30T12:29:20.152Z,8.83
2017-08-30T12:31:47.607Z,12.10
2017-08-30T12:34:15.121Z,8.10
2017-08-30T12:36:48.166Z,11.20
2017-08-30T12:39:21.278Z,11.70
2017-08-30T12:41:48.720Z,11.17
2017-08-30T12:44:16.169Z,10.10
2017-08-30T12:46:43.612Z,12.53
2017-08-30T12:49:11.049Z,11.10
2017-08-30T12:51:38.540Z,14.27
2017-08-30T12:54:05.984Z,16.27
2017-08-30T12:56:33.479Z,9.63
2017-08-30T12:59:00.917Z,17.00
2017-08-30T13:01:28.366Z,14.47
2017-08-30T13:03:55.810Z,15.67
2017-08-30T13:06:23.240Z,13.17
2017-08-30T13:08:50.763Z,13.33
2017-08-30T13:11:18.201Z,13.30
2017-08-30T13:13:45.648Z,10.33
2017-08-30T13:16:13.121Z,15.43
2017-08-30T13:18:40.573Z,16.73
2017-08-30T13:21:08.023Z,16.17
2017-08-30T13:23:36.309Z,8.70
2017-08-30T13:26:03.758Z,8.80
2017-08-30T13:28:31.196Z,8.60
2017-08-30T13:30:58.838Z,9.97
2017-08-30T13:33:26.346Z,8.73
2017-08-30T13:35:53.791Z,12.30
2017-08-30T13:38:21.330Z,13.30
2017-08-30T13:40:48.756Z,9.30
2017-08-30T13:43:16.202Z,10.50
2017-08-30T13:45:43.641Z,9.77
2017-08-30T13:48:11.094Z,9.03
2017-08-30T13:50:38.537Z,10.30
2017-08-30T13:53:05.991Z,9.37
2017-08-30T13:55:33.456Z,13.70
2017-08-30T13:58:00.899Z,10.13
2017-08-30T14:00:28.380Z,10.17
2017-08-30T14:02:55.810Z,10.17
2017-08-30T14:05:23.255Z,10.90
2017-08-30T14:07:50.696Z,14.80
2017-08-30T14:10:18.136Z,11.57
2017-08-30T14:12:45.576Z,13.07
2017-08-30T14:15:13.895Z,13.10
2017-08-30T14:17:41.332Z,12.10
2017-08-30T14:20:08.769Z,12.40
2017-08-30T14:22:36.205Z,9.33
2017-08-30T14:25:03.650Z,12.67
2017-08-30T14:27:31.169Z,15.20
2017-08-30T14:29:58.589Z,12.40
2017-08-30T14:32:26.057Z,10.60
2017-08-30T14:34:53.495Z,9.27
2017-08-30T14:37:20.932Z,12.63
2017-08-30T14:39:48.433Z,12.10
2017-08-30T14:42:16.309Z,18.77
2017-08-30T14:44:43.740Z,11.83
2017-08-30T14:47:11.188Z,9.67
2017-08-30T14:49:38.629Z,12.87
2017-08-30T14:52:06.100Z,8.80
2017-08-30T14:54:33.529Z,15.77
2017-08-30T14:57:00.973Z,11.90
2017-08-30T14:59:28.413Z,13.13
2017-08-30T15:01:56.189Z,8.23
2017-08-30T15:04:23.619Z,12.13
2017-08-30T15:06:51.057Z,12.80
2017-08-30T15:09:18.508Z,11.13
2017-08-30T15:11:45.945Z,10.07
2017-08-30T15:14:13.402Z,10.93
2017-08-30T15:16:40.858Z,14.03
2017-08-30T15:19:08.329Z,8.40
2017-08-30T15:21:35.778Z,9.83
2017-08-30T15:24:04.062Z,9.60
2017-08-30T15:26:31.493Z,8.30
2017-08-30T15:28:58.949Z,11.60
2017-08-30T15:31:26.397Z,7.07
2017-08-30T15:33:53.857Z,12.73
2017-08-30T15:36:21.316Z,12.73
2017-08-30T15:38:48.768Z,9.73
2017-08-30T15:41:16.326Z,10.87
2017-08-30T15:43:43.753Z,7.23
2017-08-30T15:46:11.305Z,10.73
2017-08-30T15:48:38.741Z,10.20
2017-08-30T15:51:06.180Z,12.97
2017-08-30T15:53:33.613Z,7.93
2017-08-30T15:56:01.064Z,6.80
2017-08-30T15:58:28.529Z,7.20
2017-08-30T16:00:55.978Z,10.70
2017-08-30T16:03:23.404Z,10.33
2017-08-30T16:05:50.840Z,8.10
2017-08-30T16:08:18.273Z,7.73
2017-08-30T16:10:45.737Z,8.37
2017-08-30T16:13:13.168Z,8.50
2017-08-30T16:15:40.688Z,8.63
2017-08-30T16:18:08.121Z,9.73
2017-08-30T16:20:35.565Z,8.70
2017-08-30T16:23:03.008Z,9.90
2017-08-30T16:25:30.441Z,10.50
2017-08-30T16:27:57.898Z,9.07
2017-08-30T16:30:25.318Z,10.80
2017-08-30T16:32:52.761Z,9.30
2017-08-30T16:35:20.202Z,11.80
2017-08-30T16:37:47.656Z,11.10
2017-08-30T16:40:15.097Z,7.47
2017-08-30T16:42:42.613Z,9.57
2017-08-30T16:45:10.130Z,9.70
2017-08-30T16:47:37.681Z,28.73
2017-08-30T16:50:05.194Z,13.80
2017-08-30T16:52:32.670Z,10.90
2017-08-30T16:55:00.274Z,9.50
2017-08-30T16:57:27.735Z,10.80
2017-08-30T16:59:55.213Z,16.23
2017-08-30T17:02:22.676Z,11.87
2017-08-30T17:04:50.117Z,14.10
2017-08-30T17:07:17.550Z,11.43
2017-08-30T17:09:45.005Z,10.60
2017-08-30T17:12:12.448Z,18.53
2017-08-30T17:14:39.897Z,11.83
2017-08-30T17:17:07.341Z,11.60
2017-08-30T17:19:34.803Z,11.50
2017-08-30T17:22:02.299Z,10.87
2017-08-30T17:24:29.749Z,12.07
2017-08-30T17:26:57.217Z,14.40
2017-08-30T17:29:24.665Z,12.10
2017-08-30T17:31:52.121Z,13.83
2017-08-30T17:34:19.549Z,11.23
2017-08-30T17:36:46.997Z,12.43
2017-08-30T17:39:14.517Z,13.07
2017-08-30T17:41:42.024Z,11.83
2017-08-30T17:44:09.573Z,13.93
2017-08-30T17:46:37.134Z,13.30
2017-08-30T17:49:04.572Z,12.07
2017-08-30T17:51:32.024Z,11.37
2017-08-30T17:53:59.460Z,12.07
2017-08-30T17:56:26.905Z,11.67
2017-08-30T17:58:54.424Z,11.90
2017-08-30T18:01:21.870Z,12.10
2017-08-30T18:03:49.345Z,11.10
2017-08-30T18:06:16.794Z,13.30
2017-08-30T18:08:44.242Z,14.07
2017-08-30T18:11:11.708Z,15.07
2017-08-30T18:13:39.172Z,12.47
2017-08-30T18:16:06.616Z,13.90
2017-08-30T18:18:34.072Z,12.87
2017-08-30T18:21:01.629Z,12.60
2017-08-30T18:23:29.096Z,14.40
2017-08-30T18:25:56.570Z,15.20
2017-08-30T18:28:24.038Z,14.30
2017-08-30T18:30:51.489Z,14.33
2017-08-30T18:33:18.934Z,11.90
2017-08-30T18:35:46.387Z,15.00
2017-08-30T18:38:13.826Z,17.87
2017-08-30T18:40:41.370Z,13.10
2017-08-30T18:43:08.877Z,13.30
2017-08-30T18:45:36.348Z,16.53
2017-08-30T18:48:03.792Z,13.17
2017-08-30T18:50:31.253Z,14.40
2017-08-30T18:52:58.796Z,13.70
2017-08-30T18:55:26.273Z,15.40
2017-08-30T18:57:53.769Z,12.20
2017-08-30T19:00:21.211Z,12.33
2017-08-30T19:02:48.773Z,12.40
2017-08-30T19:05:16.275Z,15.37
2017-08-30T19:07:43.744Z,13.40
2017-08-30T19:10:11.197Z,12.03
2017-08-30T19:12:38.644Z,13.97
2017-08-30T19:15:06.093Z,12.97
2017-08-30T19:17:33.543Z,12.73
2017-08-30T19:20:00.979Z,14.00
2017-08-30T19:22:28.424Z,12.03
2017-08-30T19:24:55.862Z,12.17
2017-08-30T19:27:23.316Z,12.03
2017-08-30T19:29:50.828Z,11.87
2017-08-30T19:32:18.285Z,12.57
2017-08-30T19:34:45.725Z,15.00
2017-08-30T19:37:13.261Z,12.83
2017-08-30T19:39:40.711Z,12.67
2017-08-30T19:42:08.147Z,12.20
2017-08-30T19:44:35.596Z,12.70
2017-08-30T19:47:03.127Z,13.70
2017-08-30T19:49:30.585Z,14.73
2017-08-30T19:51:58.070Z,16.90
2017-08-30T19:54:25.509Z,13.47
2017-08-30T19:56:52.956Z,14.07
2017-08-30T19:59:20.416Z,16.53
2017-08-30T20:01:47.862Z,13.43
2017-08-30T20:04:15.296Z,14.40
2017-08-30T20:06:42.741Z,12.57
2017-08-30T20:09:10.270Z,12.33
2017-08-30T20:11:37.732Z,12.40
2017-08-30T20:14:05.178Z,16.53
2017-08-30T20:16:32.628Z,13.20
2017-08-30T20:19:00.077Z,14.80
2017-08-30T20:21:27.532Z,20.43
2017-08-30T20:23:55.131Z,15.70
2017-08-30T20:26:22.636Z,15.60
2017-08-30T20:28:50.065Z,17.07
2017-08-30T20:31:17.525Z,13.13
2017-08-30T20:33:44.969Z,17.67
2017-08-30T20:36:12.412Z,24.80
2017-08-30T20:38:39.844Z,22.07
2017-08-30T20:41:07.383Z,13.77
2017-08-30T20:43:34.833Z,16.03
2017-08-30T20:46:02.331Z,19.67
2017-08-30T20:48:29.778Z,14.70
2017-08-30T20:50:57.223Z,15.97
2017-08-30T20:53:24.680Z,14.90
2017-08-30T20:55:52.160Z,14.77
2017-08-30T20:58:19.609Z,15.33
2017-08-30T21:00:47.057Z,24.97
2017-08-30T21:03:14.511Z,20.30
2017-08-30T21:05:41.952Z,14.63
2017-08-30T21:08:09.407Z,14.30
2017-08-30T21:10:36.864Z,15.33
2017-08-30T21:13:04.445Z,14.83
2017-08-30T21:15:31.907Z,15.60
2017-08-30T21:17:59.360Z,13.37
2017-08-30T21:20:26.813Z,14.60
2017-08-30T21:22:54.279Z,17.17
2017-08-30T21:25:21.717Z,14.80
2017-08-30T21:27:49.172Z,17.07
2017-08-30T21:30:16.621Z,14.97
2017-08-30T21:32:44.076Z,18.17
2017-08-30T21:35:11.532Z,16.57
2017-08-30T21:37:38.988Z,15.90
2017-08-30T21:40:06.509Z,18.87
2017-08-30T21:42:33.953Z,18.60
2017-08-30T21:45:01.419Z,13.73
2017-08-30T21:47:28.857Z,15.50
2017-08-30T21:49:56.324Z,14.33
2017-08-30T21:52:23.770Z,14.27
2017-08-30T21:54:51.232Z,16.33
2017-08-30T21:57:18.684Z,18.97
2017-08-30T21:59:46.142Z,16.53
2017-08-30T22:02:13.601Z,17.10
2017-08-30T22:04:41.062Z,16.20
2017-08-30T22:07:08.505Z,16.90
2017-08-30T22:09:35.954Z,14.27
2017-08-30T22:12:03.410Z,16.43
2017-08-30T22:14:30.856Z,13.57
2017-08-30T22:16:58.348Z,13.47
2017-08-30T22:19:25.792Z,14.57
2017-08-30T22:21:53.273Z,12.37
2017-08-30T22:24:20.721Z,13.60
2017-08-30T22:26:48.151Z,15.77
2017-08-30T22:29:15.596Z,12.90
2017-08-30T22:31:43.041Z,13.73
2017-08-30T22:34:10.512Z,13.20
2017-08-30T22:36:37.952Z,15.60
2017-08-30T22:39:05.452Z,18.93
2017-08-30T22:41:32.888Z,14.60
2017-08-30T22:44:00.342Z,15.53
2017-08-30T22:46:27.789Z,15.40
2017-08-30T22:48:55.244Z,18.80
2017-08-30T22:51:22.700Z,17.27
2017-08-30T22:53:50.132Z,13.53
2017-08-30T22:56:17.711Z,16.00
2017-08-30T22:58:45.141Z,13.20
2017-08-30T23:01:12.595Z,13.07
2017-08-30T23:03:40.042Z,13.13
2017-08-30T23:06:07.489Z,21.10
2017-08-30T23:08:34.924Z,12.80
2017-08-30T23:11:02.385Z,16.03
2017-08-30T23:13:29.812Z,17.03
2017-08-30T23:15:57.260Z,11.90
2017-08-30T23:18:24.724Z,12.60
2017-08-30T23:20:52.175Z,13.10
2017-08-30T23:23:19.617Z,12.23
2017-08-30T23:25:47.156Z,11.67
2017-08-30T23:28:14.611Z,11.07
2017-08-30T23:30:42.053Z,17.43
2017-08-30T23:33:09.496Z,14.00
2017-08-30T23:35:36.941Z,10.77
2017-08-30T23:38:04.384Z,11.50
2017-08-30T23:40:31.837Z,9.77
2017-08-30T23:42:59.297Z,9.20
2017-08-30T23:45:26.731Z,8.73
2017-08-30T23:47:54.155Z,11.23
2017-08-30T23:50:21.595Z,7.97
2017-08-30T23:52:49.021Z,7.63
2017-08-30T23:55:16.468Z,8.10
2017-08-30T23:57:43.906Z,7.87
